createdAt,value
2018-08-03T00:02:26.138Z,19.80
2018-08-03T00:04:58.205Z,19.90
2018-08-03T00:07:30.285Z,19.70
2018-08-03T00:10:02.332Z,19.80
2018-08-03T00:12:34.448Z,20.00
2018-08-03T00:15:07.942Z,19.70
2018-08-03T00:17:40.163Z,19.80
2018-08-03T00:20:12.237Z,19.60
2018-08-03T00:22:44.297Z,19.50
2018-08-03T00:25:16.264Z,19.30
2018-08-03T00:27:48.190Z,19.30
2018-08-03T00:30:21.308Z,19.20
2018-08-03T00:32:53.426Z,19.50
2018-08-03T00:35:25.343Z,19.50
2018-08-03T00:37:57.322Z,19.40
2018-08-03T00:40:29.402Z,19.50
2018-08-03T00:43:01.379Z,19.40
2018-08-03T00:45:33.547Z,19.40
2018-08-03T00:50:37.460Z,19.20
2018-08-03T00:53:09.677Z,19.10
2018-08-03T00:55:41.690Z,19.10
2018-08-03T00:58:13.864Z,19.10
2018-08-03T01:00:46.624Z,19.50
2018-08-03T01:03:18.685Z,19.30
2018-08-03T01:05:51.123Z,19.30
2018-08-03T01:08:23.227Z,19.20
2018-08-03T01:10:55.274Z,19.50
2018-08-03T01:13:27.473Z,19.50
2018-08-03T01:15:59.623Z,19.50
2018-08-03T01:18:31.947Z,19.60
2018-08-03T01:21:04.060Z,19.50
2018-08-03T01:23:36.209Z,19.20
2018-08-03T01:26:08.325Z,19.10
2018-08-03T01:28:40.511Z,19.20
2018-08-03T01:31:12.522Z,19.50
2018-08-03T01:33:44.780Z,19.70
2018-08-03T01:36:16.885Z,19.40
2018-08-03T01:38:49.025Z,19.00
2018-08-03T01:41:21.042Z,19.20
2018-08-03T01:43:53.128Z,19.10
2018-08-03T01:46:25.215Z,19.00
2018-08-03T01:48:57.326Z,19.00
2018-08-03T01:51:29.354Z,19.00
2018-08-03T01:54:01.605Z,18.90
2018-08-03T01:56:33.622Z,19.10
2018-08-03T01:59:05.719Z,19.00
2018-08-03T02:01:37.770Z,19.30
2018-08-03T02:04:09.858Z,19.30
2018-08-03T02:06:41.988Z,19.20
2018-08-03T02:09:14.231Z,19.40
2018-08-03T02:11:46.467Z,19.50
2018-08-03T02:14:18.578Z,19.20
2018-08-03T02:16:50.537Z,19.40
2018-08-03T02:19:22.657Z,19.60
2018-08-03T02:21:54.625Z,19.70
2018-08-03T02:24:26.722Z,19.40
2018-08-03T02:26:58.788Z,19.10
2018-08-03T02:29:30.938Z,19.00
2018-08-03T02:32:03.217Z,19.00
2018-08-03T02:34:35.346Z,19.10
2018-08-03T02:37:07.395Z,19.10
2018-08-03T02:39:39.447Z,19.10
2018-08-03T02:42:11.559Z,19.20
2018-08-03T02:44:43.906Z,19.20
2018-08-03T02:47:16.054Z,19.40
2018-08-03T02:49:48.134Z,19.10
2018-08-03T02:52:20.149Z,19.10
2018-08-03T02:54:52.228Z,19.30
2018-08-03T02:57:24.168Z,19.00
2018-08-03T02:59:56.802Z,19.20
2018-08-03T03:02:28.817Z,19.10
2018-08-03T03:05:00.895Z,19.00
2018-08-03T03:07:32.956Z,19.00
2018-08-03T03:10:08.089Z,19.20
2018-08-03T03:12:40.117Z,19.30
2018-08-03T03:15:12.504Z,19.20
2018-08-03T03:17:44.568Z,19.10
2018-08-03T03:20:16.602Z,19.30
2018-08-03T03:22:48.683Z,19.30
2018-08-03T03:25:21.361Z,19.40
2018-08-03T03:27:53.364Z,19.20
2018-08-03T03:32:56.742Z,19.00
2018-08-03T03:35:28.808Z,19.00
2018-08-03T03:38:00.960Z,19.00
2018-08-03T03:40:33.372Z,19.10
2018-08-03T03:43:05.467Z,19.00
2018-08-03T03:45:37.758Z,19.10
2018-08-03T03:48:09.703Z,18.90
2018-08-03T03:50:41.683Z,19.00
2018-08-03T03:53:13.762Z,19.10
2018-08-03T03:55:45.868Z,19.10
2018-08-03T03:58:18.124Z,18.90
2018-08-03T04:00:50.145Z,18.80
2018-08-03T04:03:22.134Z,18.80
2018-08-03T04:05:54.897Z,18.80
2018-08-03T04:08:27.029Z,19.00
2018-08-03T04:10:59.214Z,19.20
2018-08-03T04:13:31.328Z,19.10
2018-08-03T04:18:34.589Z,19.10
2018-08-03T04:21:06.642Z,19.10
2018-08-03T04:23:38.736Z,18.80
2018-08-03T04:26:10.858Z,18.80
2018-08-03T04:28:42.831Z,18.80
2018-08-03T04:31:14.909Z,19.00
2018-08-03T04:33:46.936Z,19.00
2018-08-03T04:36:19.258Z,19.00
2018-08-03T04:38:51.407Z,19.10
2018-08-03T04:41:23.539Z,19.10
2018-08-03T04:43:55.502Z,19.10
2018-08-03T04:46:27.505Z,19.00
2018-08-03T04:49:00.171Z,19.30
2018-08-03T04:51:32.200Z,19.20
2018-08-03T04:54:04.243Z,19.00
2018-08-03T04:56:36.378Z,19.00
2018-08-03T04:59:08.654Z,19.00
2018-08-03T05:01:40.697Z,19.30
2018-08-03T05:04:12.677Z,19.50
2018-08-03T05:06:44.649Z,19.50
2018-08-03T05:09:16.630Z,19.40
2018-08-03T05:11:48.624Z,19.20
2018-08-03T05:14:20.829Z,19.20
2018-08-03T05:16:53.141Z,19.30
2018-08-03T05:19:25.403Z,19.20
2018-08-03T05:21:57.781Z,19.20
2018-08-03T05:24:30.063Z,19.20
2018-08-03T05:27:02.261Z,19.50
2018-08-03T05:29:34.563Z,19.40
2018-08-03T05:32:07.111Z,19.60
2018-08-03T05:34:39.568Z,19.50
2018-08-03T05:37:11.825Z,19.30
2018-08-03T05:39:44.016Z,19.40
2018-08-03T05:42:16.676Z,19.30
2018-08-03T05:44:49.162Z,19.20
2018-08-03T05:47:21.876Z,19.30
2018-08-03T05:49:54.225Z,19.40
2018-08-03T05:52:26.746Z,19.30
2018-08-03T05:54:59.081Z,19.50
2018-08-03T05:57:31.623Z,19.30
2018-08-03T06:00:04.078Z,19.30
2018-08-03T06:02:36.452Z,19.40
2018-08-03T06:05:10.366Z,19.40
2018-08-03T06:07:42.870Z,19.50
2018-08-03T06:10:15.608Z,19.50
2018-08-03T06:12:48.012Z,19.30
2018-08-03T06:15:20.398Z,19.20
2018-08-03T06:17:52.758Z,19.30
2018-08-03T06:20:25.168Z,19.20
2018-08-03T06:22:57.568Z,19.30
2018-08-03T06:25:29.939Z,19.40
2018-08-03T06:28:02.158Z,19.60
2018-08-03T06:30:34.333Z,19.40
2018-08-03T06:33:06.686Z,19.40
2018-08-03T06:35:38.942Z,19.40
2018-08-03T06:38:11.398Z,19.40
2018-08-03T06:40:43.896Z,19.40
2018-08-03T06:43:16.255Z,19.60
2018-08-03T06:45:48.463Z,19.60
2018-08-03T06:48:20.796Z,19.60
2018-08-03T06:50:52.988Z,19.70
2018-08-03T06:53:28.536Z,19.60
2018-08-03T06:56:00.756Z,19.60
2018-08-03T06:58:33.222Z,19.60
2018-08-03T07:01:05.588Z,19.60
2018-08-03T07:03:37.899Z,19.60
2018-08-03T07:06:10.114Z,19.50
2018-08-03T07:08:42.349Z,19.70
2018-08-03T07:11:14.748Z,19.90
2018-08-03T07:13:46.944Z,19.90
2018-08-03T07:16:19.561Z,19.70
2018-08-03T07:18:51.878Z,19.80
2018-08-03T07:21:27.781Z,20.00
2018-08-03T07:24:00.502Z,19.90
2018-08-03T07:26:32.828Z,20.00
2018-08-03T07:29:05.329Z,20.10
2018-08-03T07:31:37.724Z,20.10
2018-08-03T07:34:10.103Z,20.30
2018-08-03T07:36:42.353Z,20.30
2018-08-03T07:39:14.786Z,20.40
2018-08-03T07:41:47.311Z,20.50
2018-08-03T07:44:19.615Z,20.50
2018-08-03T07:46:52.128Z,20.50
2018-08-03T07:49:24.664Z,20.70
2018-08-03T07:51:56.981Z,20.70
2018-08-03T07:54:29.036Z,20.90
2018-08-03T07:57:01.093Z,20.90
2018-08-03T07:59:33.274Z,21.00
2018-08-03T08:02:05.354Z,21.00
2018-08-03T08:04:37.444Z,21.20
2018-08-03T08:07:09.568Z,21.30
2018-08-03T08:09:41.687Z,21.10
2018-08-03T08:12:13.756Z,21.40
2018-08-03T08:14:45.977Z,21.60
2018-08-03T08:17:18.254Z,21.80
2018-08-03T08:19:50.434Z,21.70
2018-08-03T08:22:22.401Z,21.70
2018-08-03T08:24:54.585Z,21.80
2018-08-03T08:27:26.664Z,22.10
2018-08-03T08:29:58.852Z,22.30
2018-08-03T08:32:30.822Z,22.40
2018-08-03T08:35:03.011Z,22.60
2018-08-03T08:37:35.187Z,22.50
2018-08-03T08:40:07.616Z,22.60
2018-08-03T08:42:39.706Z,22.80
2018-08-03T08:45:11.825Z,22.70
2018-08-03T08:47:44.024Z,22.40
2018-08-03T08:50:16.143Z,22.60
2018-08-03T08:52:48.236Z,23.00
2018-08-03T08:55:20.358Z,23.20
2018-08-03T08:57:55.400Z,23.30
2018-08-03T09:00:27.648Z,23.20
2018-08-03T09:02:59.740Z,23.40
2018-08-03T09:05:31.898Z,23.70
2018-08-03T09:08:04.458Z,23.70
2018-08-03T09:10:36.717Z,23.40
2018-08-03T09:13:08.835Z,23.70
2018-08-03T09:15:40.986Z,23.80
2018-08-03T09:18:13.106Z,24.10
2018-08-03T09:20:45.230Z,24.20
2018-08-03T09:23:17.337Z,24.20
2018-08-03T09:25:49.998Z,24.40
2018-08-03T09:28:22.273Z,24.30
2018-08-03T09:30:54.438Z,24.30
2018-08-03T09:33:26.365Z,24.40
2018-08-03T09:35:58.443Z,24.40
2018-08-03T09:38:30.518Z,24.30
2018-08-03T09:41:02.744Z,24.70
2018-08-03T09:43:34.787Z,25.00
2018-08-03T09:46:07.307Z,25.00
2018-08-03T09:48:39.435Z,25.00
2018-08-03T09:51:11.773Z,25.10
2018-08-03T09:53:43.862Z,25.50
2018-08-03T09:56:16.071Z,25.20
2018-08-03T09:58:48.446Z,25.30
2018-08-03T10:01:20.623Z,25.20
2018-08-03T10:03:52.745Z,25.20
2018-08-03T10:06:24.944Z,25.40
2018-08-03T10:08:57.114Z,25.20
2018-08-03T10:11:29.365Z,25.40
2018-08-03T10:14:01.497Z,25.80
2018-08-03T10:16:34.116Z,25.90
2018-08-03T10:19:06.309Z,26.20
2018-08-03T10:21:38.861Z,26.40
2018-08-03T10:24:11.825Z,26.50
2018-08-03T10:26:44.046Z,26.50
2018-08-03T10:31:47.556Z,26.70
2018-08-03T10:34:19.597Z,26.80
2018-08-03T10:36:52.202Z,27.00
2018-08-03T10:39:24.346Z,27.00
2018-08-03T10:41:56.425Z,27.20
2018-08-03T10:44:28.525Z,27.10
2018-08-03T10:47:00.717Z,27.00
2018-08-03T10:49:32.748Z,27.10
2018-08-03T10:52:05.006Z,27.20
2018-08-03T10:54:37.627Z,27.20
2018-08-03T10:57:09.731Z,27.30
2018-08-03T11:02:13.571Z,27.80
2018-08-03T11:04:45.718Z,27.60
2018-08-03T11:07:18.575Z,27.70
2018-08-03T11:12:23.808Z,27.70
2018-08-03T11:14:56.323Z,27.70
2018-08-03T11:17:28.727Z,27.70
2018-08-03T11:20:00.798Z,27.80
2018-08-03T11:22:32.989Z,28.00
2018-08-03T11:25:05.052Z,28.60
2018-08-03T11:27:37.732Z,28.70
2018-08-03T11:30:11.525Z,28.90
2018-08-03T11:32:44.009Z,29.00
2018-08-03T11:35:16.195Z,29.20
2018-08-03T11:37:48.306Z,29.30
2018-08-03T11:42:51.875Z,29.90
2018-08-03T11:45:23.999Z,29.60
2018-08-03T11:47:56.197Z,29.50
2018-08-03T11:50:29.091Z,29.70
2018-08-03T11:53:03.271Z,29.60
2018-08-03T11:55:35.744Z,29.80
2018-08-03T11:58:08.201Z,29.80
2018-08-03T12:00:40.473Z,30.00
2018-08-03T12:03:12.868Z,30.30
2018-08-03T12:05:45.123Z,30.10
2018-08-03T12:08:17.185Z,30.20
2018-08-03T12:10:49.612Z,30.10
2018-08-03T12:13:22.002Z,30.50
2018-08-03T12:15:54.974Z,30.40
2018-08-03T12:18:27.226Z,30.30
2018-08-03T12:20:59.259Z,30.40
2018-08-03T12:23:31.626Z,30.60
2018-08-03T12:26:03.844Z,30.30
2018-08-03T12:28:36.029Z,30.50
2018-08-03T12:31:08.368Z,30.70
2018-08-03T12:33:40.821Z,30.80
2018-08-03T12:36:13.008Z,30.70
2018-08-03T12:38:45.095Z,30.90
2018-08-03T12:41:17.321Z,30.90
2018-08-03T12:43:49.518Z,31.10
2018-08-03T12:46:21.682Z,31.10
2018-08-03T12:48:53.858Z,31.10
2018-08-03T12:51:26.066Z,31.20
2018-08-03T12:53:58.180Z,31.20
2018-08-03T12:56:30.679Z,31.30
2018-08-03T12:59:03.126Z,31.30
2018-08-03T13:01:35.141Z,31.20
2018-08-03T13:06:38.798Z,31.50
2018-08-03T13:09:10.999Z,31.40
2018-08-03T13:11:43.245Z,31.40
2018-08-03T13:14:16.905Z,31.60
2018-08-03T13:16:49.263Z,31.70
2018-08-03T13:19:21.350Z,31.50
2018-08-03T13:21:54.578Z,31.70
2018-08-03T13:24:26.754Z,31.70
2018-08-03T13:26:58.871Z,31.60
2018-08-03T13:29:31.336Z,32.00
2018-08-03T13:32:04.845Z,32.10
2018-08-03T13:34:38.128Z,31.90
2018-08-03T13:37:10.334Z,32.10
2018-08-03T13:39:42.620Z,32.10
2018-08-03T13:42:14.807Z,32.50
2018-08-03T13:44:47.086Z,32.60
2018-08-03T13:47:19.219Z,32.60
2018-08-03T13:49:51.325Z,32.30
2018-08-03T13:57:26.204Z,32.30
2018-08-03T13:59:59.025Z,32.50
2018-08-03T14:02:31.266Z,32.50
2018-08-03T14:05:03.370Z,32.40
2018-08-03T14:07:36.235Z,32.70
2018-08-03T14:10:10.294Z,32.70
2018-08-03T14:12:42.343Z,32.80
2018-08-03T14:15:14.958Z,32.70
2018-08-03T14:17:47.266Z,32.40
2018-08-03T14:20:19.635Z,33.20
2018-08-03T14:22:52.009Z,32.90
2018-08-03T14:25:24.151Z,32.80
2018-08-03T14:27:56.362Z,33.10
2018-08-03T14:30:28.341Z,33.00
2018-08-03T14:33:00.361Z,33.20
2018-08-03T14:35:32.636Z,33.40
2018-08-03T14:38:04.798Z,33.30
2018-08-03T14:40:37.061Z,33.20
2018-08-03T14:43:09.432Z,32.90
2018-08-03T14:45:41.686Z,33.30
2018-08-03T14:48:13.910Z,33.10
2018-08-03T14:50:45.966Z,33.20
2018-08-03T14:53:18.026Z,33.10
2018-08-03T14:55:50.544Z,33.20
2018-08-03T14:58:22.689Z,33.40
2018-08-03T15:00:54.722Z,33.00
2018-08-03T15:03:26.887Z,32.60
2018-08-03T15:05:58.963Z,32.80
2018-08-03T15:08:31.254Z,33.00
2018-08-03T15:11:03.405Z,33.00
2018-08-03T15:13:35.317Z,32.70
2018-08-03T15:16:08.446Z,32.80
2018-08-03T15:18:40.699Z,32.70
2018-08-03T15:21:12.742Z,32.90
2018-08-03T15:23:44.784Z,33.10
2018-08-03T15:26:16.770Z,33.20
2018-08-03T15:28:49.078Z,32.80
2018-08-03T15:31:21.770Z,32.70
2018-08-03T15:33:54.035Z,32.80
2018-08-03T15:36:26.010Z,32.90
2018-08-03T15:38:58.106Z,33.20
2018-08-03T15:44:01.775Z,33.00
2018-08-03T15:46:34.078Z,32.80
2018-08-03T15:49:06.495Z,32.50
2018-08-03T15:51:38.462Z,32.80
2018-08-03T15:54:10.567Z,32.80
2018-08-03T15:59:14.166Z,32.70
2018-08-03T16:01:46.244Z,32.90
2018-08-03T16:04:18.472Z,33.00
2018-08-03T16:06:50.651Z,33.10
2018-08-03T16:09:22.843Z,33.00
2018-08-03T16:11:54.893Z,33.00
2018-08-03T16:14:26.936Z,32.60
2018-08-03T16:16:59.052Z,32.60
2018-08-03T16:19:31.131Z,32.00
2018-08-03T16:22:03.713Z,32.10
2018-08-03T16:24:35.795Z,31.90
2018-08-03T16:27:07.912Z,31.50
2018-08-03T16:29:40.078Z,31.20
2018-08-03T16:32:12.143Z,31.40
2018-08-03T16:34:44.235Z,31.70
2018-08-03T16:37:16.406Z,31.50
2018-08-03T16:39:48.604Z,30.80
2018-08-03T16:42:20.587Z,30.30
2018-08-03T16:44:52.729Z,30.30
2018-08-03T16:47:24.704Z,30.20
2018-08-03T16:49:57.013Z,29.80
2018-08-03T16:52:29.052Z,29.70
2018-08-03T16:55:01.054Z,30.30
2018-08-03T16:57:32.989Z,30.80
2018-08-03T17:00:05.506Z,30.70
2018-08-03T17:02:38.015Z,30.90
2018-08-03T17:05:10.257Z,31.40
2018-08-03T17:07:42.236Z,32.00
2018-08-03T17:10:14.385Z,32.10
2018-08-03T17:12:46.429Z,32.10
2018-08-03T17:15:18.523Z,32.20
2018-08-03T17:17:50.409Z,32.50
2018-08-03T17:20:22.444Z,32.60
2018-08-03T17:22:54.614Z,32.60
2018-08-03T17:25:27.137Z,32.20
2018-08-03T17:28:02.455Z,31.70
2018-08-03T17:30:42.310Z,31.80
2018-08-03T17:33:14.634Z,30.90
2018-08-03T17:35:48.068Z,30.40
2018-08-03T17:38:20.493Z,30.10
2018-08-03T17:40:52.503Z,29.80
2018-08-03T17:43:24.708Z,29.60
2018-08-03T17:45:56.976Z,29.10
2018-08-03T17:48:29.026Z,29.10
2018-08-03T17:51:01.745Z,28.80
2018-08-03T17:56:05.353Z,28.50
2018-08-03T17:58:37.368Z,28.40
2018-08-03T18:01:09.385Z,28.30
2018-08-03T18:03:41.399Z,28.00
2018-08-03T18:06:13.302Z,27.90
2018-08-03T18:08:45.305Z,27.90
2018-08-03T18:11:17.339Z,28.00
2018-08-03T18:13:49.529Z,27.90
2018-08-03T18:16:21.994Z,27.60
2018-08-03T18:18:54.585Z,27.40
2018-08-03T18:21:26.562Z,27.30
2018-08-03T18:23:58.485Z,27.30
2018-08-03T18:26:30.694Z,27.30
2018-08-03T18:29:03.014Z,27.00
2018-08-03T18:31:35.082Z,27.00
2018-08-03T18:34:07.261Z,26.70
2018-08-03T18:36:39.356Z,26.60
2018-08-03T18:39:13.372Z,26.70
2018-08-03T18:41:45.617Z,26.90
2018-08-03T18:44:19.042Z,26.90
2018-08-03T18:46:51.128Z,26.60
2018-08-03T18:49:23.212Z,26.80
2018-08-03T18:51:58.360Z,26.50
2018-08-03T18:54:30.729Z,26.80
2018-08-03T18:57:02.801Z,26.70
2018-08-03T18:59:35.915Z,26.60
2018-08-03T19:02:08.533Z,26.40
2018-08-03T19:04:40.761Z,26.50
2018-08-03T19:07:12.945Z,26.70
2018-08-03T19:09:46.851Z,26.50
2018-08-03T19:12:18.664Z,26.50
2018-08-03T19:14:51.541Z,26.20
2018-08-03T19:17:23.595Z,26.10
2018-08-03T19:19:55.655Z,26.30
2018-08-03T19:22:27.694Z,26.10
2018-08-03T19:25:00.142Z,25.70
2018-08-03T19:27:32.349Z,25.60
2018-08-03T19:30:05.711Z,25.80
2018-08-03T19:32:37.750Z,25.80
2018-08-03T19:35:09.998Z,25.70
2018-08-03T19:37:42.191Z,25.50
2018-08-03T19:40:14.708Z,25.40
2018-08-03T19:42:46.924Z,25.20
2018-08-03T19:45:19.755Z,25.20
2018-08-03T19:47:51.938Z,25.10
2018-08-03T19:50:23.958Z,25.10
2018-08-03T19:52:56.051Z,24.70
2018-08-03T19:55:28.159Z,24.60
2018-08-03T19:58:00.614Z,24.50
2018-08-03T20:00:32.973Z,24.80
2018-08-03T20:03:10.904Z,24.80
2018-08-03T20:05:48.693Z,24.80
2018-08-03T20:08:26.363Z,24.80
2018-08-03T20:11:03.763Z,24.70
2018-08-03T20:13:41.366Z,24.70
2018-08-03T20:16:19.002Z,24.70
2018-08-03T20:18:56.730Z,24.70
2018-08-03T20:21:34.172Z,24.70
2018-08-03T20:24:13.480Z,24.40
2018-08-03T20:26:47.407Z,24.40
2018-08-03T20:29:18.939Z,24.20
2018-08-03T20:31:50.402Z,24.10
2018-08-03T20:34:21.936Z,24.10
2018-08-03T20:36:53.547Z,24.00
2018-08-03T20:39:31.521Z,24.00
2018-08-03T20:42:04.022Z,24.10
2018-08-03T20:44:36.213Z,24.30
2018-08-03T20:47:08.412Z,24.40
2018-08-03T20:49:40.599Z,24.30
2018-08-03T20:52:12.717Z,23.70
2018-08-03T20:54:45.180Z,23.60
2018-08-03T20:57:17.401Z,23.50
2018-08-03T20:59:50.106Z,23.60
2018-08-03T21:02:22.438Z,24.00
2018-08-03T21:04:55.518Z,24.10
2018-08-03T21:07:27.745Z,23.60
2018-08-03T21:10:00.001Z,23.20
2018-08-03T21:12:32.063Z,23.20
2018-08-03T21:15:04.183Z,23.30
2018-08-03T21:17:37.170Z,23.70
2018-08-03T21:20:10.254Z,23.70
2018-08-03T21:22:42.321Z,23.70
2018-08-03T21:25:15.587Z,23.60
2018-08-03T21:27:47.610Z,23.60
2018-08-03T21:30:19.745Z,23.60
2018-08-03T21:32:51.701Z,23.70
2018-08-03T21:35:24.081Z,23.60
2018-08-03T21:37:56.330Z,23.40
2018-08-03T21:40:28.721Z,23.20
2018-08-03T21:43:01.368Z,23.10
2018-08-03T21:45:33.781Z,22.80
2018-08-03T21:48:06.233Z,22.60
2018-08-03T21:50:38.473Z,22.50
2018-08-03T21:53:10.785Z,22.70
2018-08-03T21:55:42.919Z,22.60
2018-08-03T22:00:46.665Z,22.50
2018-08-03T22:03:18.853Z,22.50
2018-08-03T22:05:50.900Z,22.60
2018-08-03T22:10:54.623Z,22.60
2018-08-03T22:13:26.756Z,22.60
2018-08-03T22:15:58.960Z,22.60
2018-08-03T22:18:31.421Z,22.50
2018-08-03T22:23:35.262Z,22.60
2018-08-03T22:26:07.745Z,22.50
2018-08-03T22:28:40.140Z,22.80
2018-08-03T22:31:12.522Z,22.90
2018-08-03T22:33:44.710Z,22.70
2018-08-03T22:36:17.382Z,22.60
2018-08-03T22:38:49.716Z,22.60
2018-08-03T22:41:22.245Z,22.60
2018-08-03T22:46:26.197Z,22.30
2018-08-03T22:48:58.705Z,22.00
2018-08-03T22:51:31.025Z,22.00
2018-08-03T22:54:03.795Z,22.20
2018-08-03T22:56:36.328Z,22.40
2018-08-03T23:01:40.302Z,22.00
2018-08-03T23:04:19.352Z,22.20
2018-08-03T23:06:51.518Z,22.50
2018-08-03T23:09:23.822Z,22.30
2018-08-03T23:11:55.958Z,22.40
2018-08-03T23:14:28.034Z,22.20
2018-08-03T23:17:00.333Z,21.90
2018-08-03T23:19:32.460Z,22.20
2018-08-03T23:22:04.781Z,21.90
2018-08-03T23:24:37.512Z,21.80
2018-08-03T23:27:10.554Z,21.60
2018-08-03T23:29:42.767Z,21.80
2018-08-03T23:32:15.042Z,22.00
2018-08-03T23:34:47.103Z,21.90
2018-08-03T23:37:19.342Z,21.90
2018-08-03T23:39:51.693Z,22.00
2018-08-03T23:42:23.966Z,21.60
2018-08-03T23:44:56.177Z,21.50
2018-08-03T23:47:28.508Z,21.30
2018-08-03T23:50:00.654Z,21.00
2018-08-03T23:52:32.827Z,21.10
2018-08-03T23:55:05.186Z,21.20
2018-08-03T23:57:38.411Z,21.00
